Historique des mesures à Cassis (13260), France
Quotidien Résumé Juillet 17, 2018 Unités:  Métrique    US   Métrique/US
« Précédent (Jour)
Suivant (Jour) »
Quotidien Hebdomadaire Mensuel Annuel Période au choix
  Maximum: Minimum: Moyenne:
Température: TemperatureC °C 22.2 °C 25.4 °C
Point de rosée: DewpointC °C 13.9 °C 15.4 °C
Humidité: Humidity % 37 % 52 %
Vitesse du vent: 0 km/h 4.2 km/h 18.5 km/h
Rafales: 0 km/h - -
Vent:- - West
Pression: PressurehPa hPa 1007.1 hPa -
Précipitations: 0.0 mm    
Historical Graphs
 
 
Mesures pour : Juillet 17, 2018
Heure Temperature Point de rosée Pression Vent Vitesse du vent Rafales Humidité Pluie (par heure) Conditions
TemperatureC °C DewpointC °C PressurehPa hPa Calm     Humidity % HourlyPrecipMM mm SoftwareType W/m2
00:10 22.2 °C 16.9 °C 1007.2 hPa NW 12.7 km/h 19.6 km/h 72 % 0.0 mm open2300-1.11 W/m2
01:10 22.8 °C 15.8 °C 1007.2 hPa NW 17.9 km/h 17.9 km/h 65 % 0.0 mm open2300-1.11 W/m2
02:10 22.9 °C 14.9 °C 1007.1 hPa WNW 17.4 km/h 34.1 km/h 61 % 0.0 mm open2300-1.11 W/m2
03:10 22.4 °C 15.2 °C 1007.6 hPa WNW 12.2 km/h 22 km/h 64 % 0.0 mm open2300-1.11 W/m2
04:10 22.4 °C 15.0 °C 1007.4 hPa NW 16.3 km/h 17.9 km/h 63 % 0.0 mm open2300-1.11 W/m2
05:10 22.4 °C 14.5 °C 1007.3 hPa North 6.4 km/h 15.6 km/h 61 % 0.0 mm open2300-1.11 W/m2
06:10 22.3 °C 14.7 °C 1007.6 hPa NW 13.2 km/h 42.2 km/h 62 % 0.0 mm open2300-1.11 W/m2
07:10 22.5 °C 14.8 °C 1008.1 hPa North 6.4 km/h 10.3 km/h 62 % 0.0 mm open2300-1.11 W/m2
08:10 24.6 °C 15.8 °C 1008.4 hPa NNW 4.2 km/h 11.6 km/h 58 % 0.0 mm open2300-1.11 W/m2
09:10 24.3 °C 15.5 °C 1008.6 hPa NNW 5.6 km/h 14.5 km/h 58 % 0.0 mm open2300-1.11 W/m2
10:10 26.1 °C 16.6 °C 1008.6 hPa NNW 9.8 km/h 32.3 km/h 56 % 0.0 mm open2300-1.11 W/m2
11:10 28.7 °C 16.9 °C 1008.6 hPa NNE 16.3 km/h 24.8 km/h 49 % 0.0 mm open2300-1.11 W/m2
12:10 29.9 °C 17.0 °C 1008.9 hPa NW 18.7 km/h 24.8 km/h 46 % 0.0 mm open2300-1.11 W/m2
13:10 30.5 °C 17.2 °C 1008.9 hPa WNW 26.7 km/h 49.2 km/h 45 % 0.0 mm open2300-1.11 W/m2
14:10 31.4 °C 16.9 °C 1008.5 hPa NNW 48.6 km/h 48.6 km/h 42 % 0.0 mm open2300-1.11 W/m2
15:10 31.9 °C 16.6 °C 1008.3 hPa NW 20.3 km/h 20.3 km/h 40 % 0.0 mm open2300-1.11 W/m2
16:10 32.3 °C 16.6 °C 1008.0 hPa WNW 43 km/h 43 km/h 39 % 0.0 mm open2300-1.11 W/m2
17:10 32.2 °C 15.6 °C 1007.9 hPa NW 14 km/h 29.5 km/h 37 % 0.0 mm open2300-1.11 W/m2
18:10 30.0 °C 16.4 °C 1008.2 hPa West 33.2 km/h 47.3 km/h 44 % 0.0 mm open2300-1.11 W/m2
19:10 28.3 °C 16.9 °C 1008.2 hPa NW 23 km/h 37 km/h 50 % 0.0 mm open2300-1.11 W/m2
20:10 27.1 °C 16.9 °C 1008.4 hPa West 43.5 km/h 54.9 km/h 54 % 0.0 mm open2300-1.11 W/m2
21:10 25.9 °C 17.0 °C 1008.5 hPa WNW 37 km/h 37 km/h 58 % 0.0 mm open2300-1.11 W/m2
22:10 25.3 °C 16.2 °C 1009.0 hPa North 5.6 km/h 7.6 km/h 57 % 0.0 mm open2300-1.11 W/m2
23:10 27.3 °C 13.9 °C 1009.1 hPa NNW 9.8 km/h 15.6 km/h 44 % 0.0 mm open2300-1.11 W/m2
Observations météo à CASSIS
WU-History script by Weather Underground - 1 mb